sensor_id;sensor_type;location;lat;lon;timestamp;pressure;altitude;pressure_sealevel;temperature;humidity
61740;BME280;47645;45.288;12.038;2023-01-25T00:04:35;1028.1700622437957;;;6.8900390625;100
61740;BME280;47645;45.288;12.038;2023-01-25T00:14:35;1028.220018109867;;;6.9359375;100
61740;BME280;47645;45.288;12.038;2023-01-25T00:24:36;1028.2051987859184;;;6.9970703125;100
61740;BME280;47645;45.288;12.038;2023-01-25T00:34:43;1028.1123139952217;;;7.0734375;100
61740;BME280;47645;45.288;12.038;2023-01-25T00:44:37;1028.1519742518014;;;7.06328125;100
61740;BME280;47645;45.288;12.038;2023-01-25T00:54:37;1028.0566930365203;;;7.0734375;100
61740;BME280;47645;45.288;12.038;2023-01-25T01:04:37;1027.9631285047872;;;7.1345703125;99.59081052750896
61740;BME280;47645;45.288;12.038;2023-01-25T01:14:37;1027.9489914059766;;;7.2314453125;99.01499916794984
61740;BME280;47645;45.288;12.038;2023-01-25T01:24:38;1027.942243301232;;;7.3486328125;98.21425196173759
61740;BME280;47645;45.288;12.038;2023-01-25T01:34:38;1027.9023553052275;;;7.37421875;97.83512563634163
61740;BME280;47645;45.288;12.038;2023-01-25T01:44:44;1027.844195744418;;;7.358984375;97.53648013827696
61740;BME280;47645;45.288;12.038;2023-01-25T01:54:41;1027.810444511039;;;7.3181640625;97.84853445440255
61740;BME280;47645;45.288;12.038;2023-01-25T02:04:39;1027.7453925982325;;;7.25703125;96.97466362929276
61740;BME280;47645;45.288;12.038;2023-01-25T02:14:44;1027.708337808191;;;7.1703125;96.38840756542795
61740;BME280;47645;45.288;12.038;2023-01-25T02:24:44;1027.641449087586;;;7.06328125;96.56621732937236
61740;BME280;47645;45.288;12.038;2023-01-25T02:34:40;1027.6236550644098;;;6.8798828125;97.1863291399886
61740;BME280;47645;45.288;12.038;2023-01-25T02:44:41;1027.568525348166;;;6.833984375;96.7203299900531
61740;BME280;47645;45.288;12.038;2023-01-25T02:54:41;1027.6632255403442;;;6.706640625;97.06871364432504
61740;BME280;47645;45.288;12.038;2023-01-25T03:04:41;1027.573516279654;;;6.5435546875;98.32819333098165
61740;BME280;47645;45.288;12.038;2023-01-25T03:14:43;1027.5033799849866;;;6.512890625;99.01064333297069
61740;BME280;47645;45.288;12.038;2023-01-25T03:24:42;1027.4916909093713;;;6.502734375;98.07936869621108
61740;BME280;47645;45.288;12.038;2023-01-25T03:34:42;1027.4317245486861;;;6.196875;97.65813258300683
61740;BME280;47645;45.288;12.038;2023-01-25T03:44:43;1027.4172721653993;;;6.161328125;96.79068643489121
61740;BME280;47645;45.288;12.038;2023-01-25T03:54:43;1027.4857562707805;;;6.08984375;96.47156643241227
61740;BME280;47645;45.288;12.038;2023-01-25T04:04:44;1027.3983724389989;;;6.0185546875;96.20228662568108
61740;BME280;47645;45.288;12.038;2023-01-25T04:14:44;1027.372753080642;;;5.9369140625;95.58211424831181
61740;BME280;47645;45.288;12.038;2023-01-25T04:24:44;1027.3224914385708;;;5.7076171875;96.49834092083282
61740;BME280;47645;45.288;12.038;2023-01-25T04:34:45;1027.2474222442881;;;5.636328125;95.13685528627022
61740;BME280;47645;45.288;12.038;2023-01-25T04:44:45;1027.2873621062977;;;5.539453125;94.33703848660657
61740;BME280;47645;45.288;12.038;2023-01-25T04:54:46;1027.1728697079022;;;5.2642578125;95.29423877765763
61740;BME280;47645;45.288;12.038;2023-01-25T05:04:46;1027.0961306062904;;;5.294921875;95.27109211001236
61740;BME280;47645;45.288;12.038;2023-01-25T05:14:46;1027.1504912948592;;;5.3458984375;92.8982418119485
61740;BME280;47645;45.288;12.038;2023-01-25T05:24:47;1027.1530596779826;;;5.442578125;91.0048829790144
61740;BME280;47645;45.288;12.038;2023-01-25T05:34:48;1027.1232886804598;;;5.519140625;90.35115572476775
61740;BME280;47645;45.288;12.038;2023-01-25T05:44:47;1027.0441042051418;;;5.4732421875;90.9752849812433
61740;BME280;47645;45.288;12.038;2023-01-25T05:54:48;1026.9932575776947;;;5.508984375;90.65243866490295
61740;BME280;47645;45.288;12.038;2023-01-25T06:04:48;1027.10947740154;;;5.4935546875;90.11485355248371
61740;BME280;47645;45.288;12.038;2023-01-25T06:14:49;1027.0228526675735;;;5.4884765625;89.09548452571389
61740;BME280;47645;45.288;12.038;2023-01-25T06:24:49;1027.112305511112;;;5.519140625;88.54680388926694
61740;BME280;47645;45.288;12.038;2023-01-25T06:34:49;1027.0483497272155;;;5.508984375;88.17914589074836
61740;BME280;47645;45.288;12.038;2023-01-25T06:44:50;1026.9933430262615;;;5.636328125;87.87864948791932
61740;BME280;47645;45.288;12.038;2023-01-25T06:54:50;1026.9484669143883;;;5.62109375;86.92284980322691
61740;BME280;47645;45.288;12.038;2023-01-25T07:04:50;1026.8896720892894;;;5.66171875;86.57779585354047
61740;BME280;47645;45.288;12.038;2023-01-25T07:14:51;1026.7405364269312;;;5.66171875;85.93347834372992
61740;BME280;47645;45.288;12.038;2023-01-25T07:24:53;1026.7687366985824;;;5.646484375;85.78334771547938
61740;BME280;47645;45.288;12.038;2023-01-25T07:34:51;1026.8032291172622;;;5.870703125;83.92893659463643
61740;BME280;47645;45.288;12.038;2023-01-25T07:44:52;1026.7443225642446;;;6.0439453125;82.73995446097162
61740;BME280;47645;45.288;12.038;2023-01-25T07:54:52;1026.8253990282356;;;6.2173828125;81.53967752975267
61740;BME280;47645;45.288;12.038;2023-01-25T08:04:53;1026.746482482012;;;6.08984375;81.31310825538463
61740;BME280;47645;45.288;12.038;2023-01-25T08:14:53;1026.6897316874995;;;6.2326171875;82.11163873289215
61740;BME280;47645;45.288;12.038;2023-01-25T08:24:53;1026.5860256515023;;;6.4822265625;81.79750346609299
61740;BME280;47645;45.288;12.038;2023-01-25T08:34:53;1026.5983090383313;;;6.9919921875;81.51439300431234
61740;BME280;47645;45.288;12.038;2023-01-25T08:44:54;1026.4817783426818;;;7.2111328125;80.27485776316144
61740;BME280;47645;45.288;12.038;2023-01-25T08:54:54;1026.5276072112256;;;7.246875;80.25837776142244
61740;BME280;47645;45.288;12.038;2023-01-25T09:04:55;1026.5559032222975;;;7.3384765625;79.22058991483318
61740;BME280;47645;45.288;12.038;2023-01-25T09:14:55;1026.4625185683933;;;7.51171875;78.3545717572387
61740;BME280;47645;45.288;12.038;2023-01-25T09:24:56;1026.3973074485098;;;7.89921875;77.06776539217037
61740;BME280;47645;45.288;12.038;2023-01-25T09:34:56;1026.493410544411;;;8.25078125;75.68089196897441
61740;BME280;47645;45.288;12.038;2023-01-25T09:45:07;1026.3914053401054;;;8.765625;73.97092184672711
61740;BME280;47645;45.288;12.038;2023-01-25T09:54:57;1026.3978093574203;;;9.22421875;72.44626912912022
61740;BME280;47645;45.288;12.038;2023-01-25T10:05:03;1026.225922752747;;;9.4484375;71.95857024715613
61740;BME280;47645;45.288;12.038;2023-01-25T10:14:58;1026.0835942219082;;;9.7033203125;70.24162726176215
61740;BME280;47645;45.288;12.038;2023-01-25T10:25:10;1025.999133759485;;;9.7236328125;69.12042027385897
61740;BME280;47645;45.288;12.038;2023-01-25T10:35:17;1025.833941403905;;;10.3251953125;70.27105054620061
61740;BME280;47645;45.288;12.038;2023-01-25T10:45:00;1025.6750074688302;;;10.3353515625;66.9890390825013
61740;BME280;47645;45.288;12.038;2023-01-25T10:55:14;1025.445027424267;;;10.6615234375;67.99731160225858
61740;BME280;47645;45.288;12.038;2023-01-25T11:05:23;1025.1690581291682;;;10.620703125;63.625385394386015
61740;BME280;47645;45.288;12.038;2023-01-25T11:15:22;1025.075841412273;;;10.62578125;63.33043057786508
61740;BME280;47645;45.288;12.038;2023-01-25T11:25:24;1024.9956712820199;;;10.855078125;61.01035616206865
61740;BME280;47645;45.288;12.038;2023-01-25T11:35:04;1024.747066902825;;;10.824609375;62.10787020420451
61740;BME280;47645;45.288;12.038;2023-01-25T11:45:22;1024.5218065566612;;;10.72265625;66.47526220925563
61740;BME280;47645;45.288;12.038;2023-01-25T11:50:11;1024.4775218977807;;;10.855078125;61.97586665665802
61740;BME280;47645;45.288;12.038;2023-01-25T12:05:20;1024.2000835418369;;;11.24765625;63.04744045228836
61740;BME280;47645;45.288;12.038;2023-01-25T12:10:18;1024.1230466492248;;;11.466796875;60.232064282264474
61740;BME280;47645;45.288;12.038;2023-01-25T12:20:20;1024.0272653377233;;;11.476953125;61.20558834350669
61740;BME280;47645;45.288;12.038;2023-01-25T12:30:13;1023.8501627031721;;;11.5890625;60.86366764330782
61740;BME280;47645;45.288;12.038;2023-01-25T12:40:10;1023.7665227049852;;;11.6197265625;61.35797158909391
61740;BME280;47645;45.288;12.038;2023-01-25T12:50:14;1023.7073952689492;;;11.4005859375;59.34970150710107
61740;BME280;47645;45.288;12.038;2023-01-25T13:00:17;1023.5164578182081;;;11.0947265625;58.67506456070864
61740;BME280;47645;45.288;12.038;2023-01-25T13:10:16;1023.3265529549852;;;11.04375;60.85772815521914
61740;BME280;47645;45.288;12.038;2023-01-25T13:20:48;1023.3824036078811;;;11.262890625;60.763456854169036
61740;BME280;47645;45.288;12.038;2023-01-25T13:30:28;1023.2000611131525;;;11.1201171875;60.96226332903088
61740;BME280;47645;45.288;12.038;2023-01-25T13:40:29;1023.0622158631742;;;11.8490234375;66.48125274163384
61740;BME280;47645;45.288;12.038;2023-01-25T13:50:19;1023.1822250827427;;;11.2271484375;59.50344335068373
61740;BME280;47645;45.288;12.038;2023-01-25T14:00:14;1022.9970367716454;;;11.4921875;60.18808798608609
61740;BME280;47645;45.288;12.038;2023-01-25T14:10:15;1022.9472133264403;;;11.4005859375;63.85498492470721
61740;BME280;47645;45.288;12.038;2023-01-25T14:20:18;1023.0042439806118;;;11.242578125;60.896261052833864
61740;BME280;47645;45.288;12.038;2023-01-25T14:30:20;1022.8196146567991;;;10.748046875;63.84478873970794
61740;BME280;47645;45.288;12.038;2023-01-25T14:40:18;1022.7493132678183;;;10.1212890625;63.6904541240007
61740;BME280;47645;45.288;12.038;2023-01-25T14:50:31;1022.8642677004935;;;10.299609375;64.3190681756311
61740;BME280;47645;45.288;12.038;2023-01-25T15:00:20;1022.6628183444107;;;9.9376953125;67.65772172426132
61740;BME280;47645;45.288;12.038;2023-01-25T15:10:18;1022.6627776111382;;;9.65234375;66.61628915627858
61740;BME280;47645;45.288;12.038;2023-01-25T15:20:28;1022.7033866102001;;;9.4943359375;66.11551649222503
61740;BME280;47645;45.288;12.038;2023-01-25T15:30:17;1022.6273945599754;;;9.2548828125;66.7670504947506
61740;BME280;47645;45.288;12.038;2023-01-25T15:40:17;1022.5439482392711;;;9.346484375;70.003860902458
61740;BME280;47645;45.288;12.038;2023-01-25T15:50:18;1022.5441354107777;;;8.6482421875;67.97964395081833
61740;BME280;47645;45.288;12.038;2023-01-25T16:00:19;1022.4354800842641;;;8.1794921875;69.43727477756721
61740;BME280;47645;45.288;12.038;2023-01-25T16:10:21;1022.5565862421711;;;8.0927734375;70.71340092233741
61740;BME280;47645;45.288;12.038;2023-01-25T16:20:20;1022.5106337875004;;;7.72578125;71.8466509426729
61740;BME280;47645;45.288;12.038;2023-01-25T16:30:21;1022.5884543273685;;;7.48125;72.38927530091642
61740;BME280;47645;45.288;12.038;2023-01-25T16:40:22;1022.4280057875137;;;7.3333984375;72.78617034007463
61740;BME280;47645;45.288;12.038;2023-01-25T16:50:21;1022.4252280544034;;;7.16015625;73.30750219685808
61740;BME280;47645;45.288;12.038;2023-01-25T17:00:21;1022.3852874263071;;;7.144921875;74.11007250258831
61740;BME280;47645;45.288;12.038;2023-01-25T17:10:21;1022.2760576710293;;;6.930859375;74.35732161333154
61740;BME280;47645;45.288;12.038;2023-01-25T17:20:21;1022.2084783152084;;;6.92578125;75.92293364328921
61740;BME280;47645;45.288;12.038;2023-01-25T17:30:21;1022.139809404664;;;6.747265625;76.94612949366007
61740;BME280;47645;45.288;12.038;2023-01-25T17:40:22;1021.998502460539;;;6.5892578125;77.8288756135338
61740;BME280;47645;45.288;12.038;2023-01-25T17:50:23;1021.9394839857529;;;6.4568359375;78.04695163098688
61740;BME280;47645;45.288;12.038;2023-01-25T18:00:23;1021.9054433174122;;;6.3447265625;77.4806567035502
61740;BME280;47645;45.288;12.038;2023-01-25T18:10:23;1021.9238002773211;;;6.308984375;77.74670461460491
61740;BME280;47645;45.288;12.038;2023-01-25T18:20:24;1021.8757883167548;;;6.16640625;77.79975836161253
61740;BME280;47645;45.288;12.038;2023-01-25T18:30:34;1021.8089495895599;;;6.0337890625;78.5078884356703
61740;BME280;47645;45.288;12.038;2023-01-25T18:40:25;1021.6580311157745;;;5.9421875;79.61817688315624
61740;BME280;47645;45.288;12.038;2023-01-25T18:50:25;1021.6516727632932;;;5.64140625;79.94022499468402
61740;BME280;47645;45.288;12.038;2023-01-25T19:00:27;1021.4803941625795;;;5.5751953125;80.9755100302831
61740;BME280;47645;45.288;12.038;2023-01-25T19:10:26;1021.3730907011293;;;5.50390625;80.50776490124596
61740;BME280;47645;45.288;12.038;2023-01-25T19:20:28;1021.2821407553222;;;5.4630859375;80.4982015552896
61740;BME280;47645;45.288;12.038;2023-01-25T19:30:26;1021.2576177579749;;;5.401953125;80.3017389310944
61740;BME280;47645;45.288;12.038;2023-01-25T19:40:27;1021.0462768496479;;;5.3458984375;80.69518740468499
61740;BME280;47645;45.288;12.038;2023-01-25T19:50:30;1020.934121520156;;;5.198046875;81.8568136312685
61740;BME280;47645;45.288;12.038;2023-01-25T20:00:29;1020.8554069602843;;;5.177734375;80.88633645399575
61740;BME280;47645;45.288;12.038;2023-01-25T20:10:28;1020.8175658959274;;;5.0654296875;80.49108106100735
61740;BME280;47645;45.288;12.038;2023-01-25T20:20:28;1020.7302033011584;;;5.0603515625;80.9177273865906
61740;BME280;47645;45.288;12.038;2023-01-25T20:30:32;1020.657335264726;;;5.009375;80.59444293444932
61740;BME280;47645;45.288;12.038;2023-01-25T20:40:29;1020.6223130006299;;;4.6884765625;81.5363580140388
61740;BME280;47645;45.288;12.038;2023-01-25T20:50:29;1020.5073055606431;;;4.6017578125;81.82926038115049
61740;BME280;47645;45.288;12.038;2023-01-25T21:00:30;1020.3820831804422;;;4.5203125;81.80224409094203
61740;BME280;47645;45.288;12.038;2023-01-25T21:10:30;1020.4431052168658;;;4.438671875;81.88228754331912
61740;BME280;47645;45.288;12.038;2023-01-25T21:20:30;1020.4226704886487;;;4.2958984375;82.93829249550238
61740;BME280;47645;45.288;12.038;2023-01-25T21:30:31;1020.3771205901122;;;4.2296875;82.9907555018715
61740;BME280;47645;45.288;12.038;2023-01-25T21:40:31;1020.3116487288227;;;4.2654296875;84.55267526309049
61740;BME280;47645;45.288;12.038;2023-01-25T21:51:37;1020.2402852180646;;;4.23984375;83.00768485795889
61740;BME280;47645;45.288;12.038;2023-01-25T22:00:32;1020.1220411292791;;;3.9240234375;83.5976574361014
61740;BME280;47645;45.288;12.038;2023-01-25T22:10:32;1020.0898081523744;;;3.862890625;83.444241481862
61740;BME280;47645;45.288;12.038;2023-01-25T22:20:33;1020.0351798226058;;;3.679296875;83.73578820803631
61740;BME280;47645;45.288;12.038;2023-01-25T22:30:32;1019.9769355971341;;;3.5875;83.91062498019821
61740;BME280;47645;45.288;12.038;2023-01-25T22:40:33;1019.8700439274938;;;3.337890625;84.6776011575445
61740;BME280;47645;45.288;12.038;2023-01-25T22:50:33;1019.7988341337733;;;3.3939453125;84.59610909784591
61740;BME280;47645;45.288;12.038;2023-01-25T23:00:34;1019.6077956114793;;;3.2359375;84.81441870586832
61740;BME280;47645;45.288;12.038;2023-01-25T23:10:34;1019.5668367600477;;;3.1951171875;85.04717620743965
61740;BME280;47645;45.288;12.038;2023-01-25T23:20:34;1019.4359645657394;;;3.144140625;85.36323196719187
61740;BME280;47645;45.288;12.038;2023-01-25T23:30:34;1019.3979927313065;;;2.9658203125;85.44642761828165
61740;BME280;47645;45.288;12.038;2023-01-25T23:40:34;1019.2428253648292;;;2.812890625;86.02310790548243
61740;BME280;47645;45.288;12.038;2023-01-25T23:50:35;1019.1527597092181;;;2.6498046875;86.7328114923113
